Bene Beraq, Israel
Current Conditions -  °F | °C
As of 8:50 AM on Tuesday 21 Oct 2014 (Local Time) from LLSD Reporting Station
Few Clouds Few Clouds  
Wind Chill: 70°   Ceiling: Unl
Heat Index: 70°   Visibility: 6mi
Dew Point: 52°   Wind: 6mph
Humidity: 53%   Direction: 90°E
Pressure: 29.97"   Gusts: NA
Location:  32.09°N, 34.85°E
Report Text: LLSD 210550Z 09005KT 060V140 9999 FEW045 21/11 Q1015
Loading
Personal Weather Stations






























Interactive Weather Map
Tropical Storm Tracking
New forecast layout! Learn more

10-Day Weather Forecast

Advertisements
Track Severe Weather on mobile